Time;durP1;ratioP1;P1;durP2;ratioP2;P2;SDS_P1;SDS_P2;PMS_P1;PMS_P2;Temp;Humidity;BMP_temperature;BMP_pressure;BME280_temperature;BME280_humidity;BME280_pressure;Samples;Min_cycle;Max_cycle;Signal;HPM_P1;HPM_P2
2021/07/02 00:02:01;;;;;;;6.40;5.80;;;;;;;16.11;89.02;96482.13;5056255;28;20167;-57
2021/07/02 00:04:27;;;;;;;6.63;5.90;;;;;;;15.94;89.71;96476.19;5056284;28;20445;-58
2021/07/02 00:06:52;;;;;;;6.27;5.47;;;;;;;15.96;89.36;96475.94;5057005;28;20468;-59
2021/07/02 00:09:18;;;;;;;6.80;5.50;;;;;;;15.80;89.68;96475.03;5049608;28;20718;-59
2021/07/02 00:11:43;;;;;;;7.90;6.90;;;;;;;15.84;89.98;96478.78;5036007;28;20211;-59
2021/07/02 00:14:09;;;;;;;7.23;5.97;;;;;;;15.83;90.27;96474.53;5034981;28;20192;-58
2021/07/02 00:16:34;;;;;;;5.90;5.30;;;;;;;16.18;88.13;96465.97;5042808;28;20167;-59
2021/07/02 00:19:01;;;;;;;6.20;5.60;;;;;;;16.07;88.38;96470.44;5056032;28;20219;-59
2021/07/02 00:21:26;;;;;;;6.50;5.90;;;;;;;15.86;90.09;96470.56;5055773;28;20199;-58
2021/07/02 00:23:52;;;;;;;6.83;5.70;;;;;;;15.85;89.61;96464.47;5055451;28;20446;-59
2021/07/02 00:26:17;;;;;;;9.00;5.33;;;;;;;15.53;91.70;96469.00;5055977;28;20190;-58
2021/07/02 00:28:42;;;;;;;6.83;6.00;;;;;;;15.65;90.99;96459.06;5056056;28;20176;-59
2021/07/02 00:31:08;;;;;;;7.20;5.93;;;;;;;16.08;89.54;96468.59;5056133;28;20179;-59
2021/07/02 00:33:33;;;;;;;6.67;5.70;;;;;;;15.93;89.68;96458.69;5055270;28;20230;-59
2021/07/02 00:35:59;;;;;;;8.10;6.03;;;;;;;16.07;88.59;96461.69;5055671;28;20172;-59
2021/07/02 00:38:24;;;;;;;6.93;6.00;;;;;;;16.12;88.49;96457.22;5043630;28;20180;-59
2021/07/02 00:40:50;;;;;;;6.70;6.00;;;;;;;16.07;88.86;96454.53;5036056;28;20222;-57
2021/07/02 00:43:15;;;;;;;7.00;5.97;;;;;;;16.34;87.86;96459.72;5035363;28;20333;-57
2021/07/02 00:45:40;;;;;;;6.40;5.53;;;;;;;16.42;87.76;96452.03;5054018;28;20179;-57
2021/07/02 00:48:06;;;;;;;7.93;6.43;;;;;;;16.43;88.38;96452.84;5055713;28;20176;-59
2021/07/02 00:50:32;;;;;;;7.03;6.30;;;;;;;16.62;86.87;96454.00;5055513;28;20189;-59
2021/07/02 00:52:57;;;;;;;6.23;5.33;;;;;;;16.61;86.85;96447.09;5055032;28;20195;-57
2021/07/02 00:55:23;;;;;;;7.17;6.43;;;;;;;16.65;86.60;96442.84;5055486;28;20187;-59
2021/07/02 00:57:48;;;;;;;7.37;6.60;;;;;;;16.69;85.99;96445.78;5055330;28;20175;-59
2021/07/02 01:00:14;;;;;;;6.53;5.93;;;;;;;16.64;86.20;96437.81;5038610;28;20219;-58
2021/07/02 01:02:40;;;;;;;8.20;6.47;;;;;;;16.70;85.56;96437.56;5035148;28;20176;-58
2021/07/02 01:05:07;;;;;;;7.30;6.17;;;;;;;16.71;85.48;96443.66;5035237;28;20192;-58
2021/07/02 01:07:33;;;;;;;7.90;6.50;;;;;;;16.25;86.67;96446.13;5042787;28;20429;-59
2021/07/02 01:09:59;;;;;;;7.00;5.97;;;;;;;16.17;87.25;96449.28;5055306;28;20414;-57
2021/07/02 01:12:26;;;;;;;7.23;5.80;;;;;;;16.40;87.06;96440.09;5054749;28;20199;-59
2021/07/02 01:14:51;;;;;;;10.10;6.30;;;;;;;16.03;88.23;96447.34;5055135;28;20860;-58
2021/07/02 01:17:17;;;;;;;7.90;6.27;;;;;;;16.13;87.88;96445.53;5042554;28;20505;-58
2021/07/02 01:19:50;;;;;;;7.00;6.30;;;;;;;16.07;87.94;96443.91;5035516;28;20172;-58
2021/07/02 01:22:19;;;;;;;9.67;6.03;;;;;;;16.24;87.82;96454.34;5038364;28;20672;-58
2021/07/02 01:24:45;;;;;;;7.93;6.93;;;;;;;15.96;88.55;96452.88;5043354;28;20501;-57
2021/07/02 01:27:11;;;;;;;6.43;5.83;;;;;;;16.19;87.59;96449.03;5036122;28;20940;-57
2021/07/02 01:29:37;;;;;;;5.83;5.30;;;;;;;16.03;88.79;96450.78;5035070;28;20172;-57
2021/07/02 01:32:03;;;;;;;7.97;5.50;;;;;;;16.19;87.60;96451.69;5034285;28;21030;-58
2021/07/02 01:34:28;;;;;;;6.53;5.93;;;;;;;16.41;86.49;96455.72;5034761;28;20219;-59
2021/07/02 01:36:54;;;;;;;8.37;6.20;;;;;;;16.28;87.36;96450.94;5035185;28;20819;-59
2021/07/02 01:39:19;;;;;;;7.03;6.30;;;;;;;16.28;86.96;96448.28;5034722;28;20174;-59
2021/07/02 01:41:44;;;;;;;6.87;5.90;;;;;;;16.22;86.79;96456.44;5036149;28;20301;-58
2021/07/02 01:44:10;;;;;;;7.10;5.87;;;;;;;15.90;87.94;96453.91;5054694;28;20195;-59
2021/07/02 01:46:35;;;;;;;7.30;6.20;;;;;;;15.90;88.23;96451.25;5054627;28;20542;-59
2021/07/02 01:49:00;;;;;;;8.93;5.93;;;;;;;15.30;91.01;96456.91;5054648;28;20256;-59
2021/07/02 01:51:26;;;;;;;8.33;6.20;;;;;;;15.32;91.45;96451.34;5053317;28;20172;-57
2021/07/02 01:53:52;;;;;;;7.37;6.37;;;;;;;14.96;92.82;96455.56;5053981;28;20289;-59
2021/07/02 01:56:17;;;;;;;7.77;6.50;;;;;;;14.91;93.72;96463.41;5053625;28;20174;-58
2021/07/02 01:58:42;;;;;;;9.83;5.50;;;;;;;14.83;93.79;96461.25;5045362;28;20572;-59
2021/07/02 02:01:08;;;;;;;7.50;6.20;;;;;;;15.25;92.15;96461.34;5042919;28;20184;-58
2021/07/02 02:03:33;;;;;;;6.87;6.17;;;;;;;15.20;91.63;96456.03;5033715;28;20275;-58
2021/07/02 02:05:58;;;;;;;7.23;6.17;;;;;;;15.24;91.66;96457.09;5050974;28;20649;-58
2021/07/02 02:08:24;;;;;;;7.73;5.93;;;;;;;15.19;91.49;96452.56;5054062;28;20262;-57
2021/07/02 02:10:49;;;;;;;7.73;6.80;;;;;;;15.24;91.56;96452.59;5054144;28;20171;-59
2021/07/02 02:13:14;;;;;;;7.80;6.10;;;;;;;15.22;91.30;96451.25;5053559;28;20187;-57
2021/07/02 02:15:40;;;;;;;6.80;5.93;;;;;;;15.08;91.84;96450.09;5053457;28;20175;-59
2021/07/02 02:18:05;;;;;;;9.77;6.67;;;;;;;15.14;92.11;96447.25;5036368;28;20176;-59
2021/07/02 02:20:31;;;;;;;11.00;6.70;;;;;;;15.23;91.04;96445.72;5033902;28;20225;-57
2021/07/02 02:22:56;;;;;;;7.93;6.20;;;;;;;15.23;91.17;96444.94;5033736;28;20226;-59
2021/07/02 02:25:21;;;;;;;6.90;5.97;;;;;;;15.22;91.14;96444.13;5033938;28;20627;-57
2021/07/02 02:27:48;;;;;;;6.57;5.97;;;;;;;15.10;91.52;96443.50;5033770;28;20172;-59
2021/07/02 02:30:14;;;;;;;8.87;6.57;;;;;;;15.06;91.60;96442.41;5038464;28;20630;-58
2021/07/02 02:32:40;;;;;;;9.40;6.80;;;;;;;14.92;92.47;96448.34;5043903;28;20497;-59
2021/07/02 02:35:07;;;;;;;8.70;6.40;;;;;;;14.67;93.72;96453.38;5037118;28;20473;-58
2021/07/02 02:37:32;;;;;;;10.00;7.20;;;;;;;14.83;93.16;96447.19;5053668;28;20175;-57
2021/07/02 02:39:59;;;;;;;6.53;5.83;;;;;;;14.89;93.17;96448.84;5053725;28;20410;-57
2021/07/02 02:42:24;;;;;;;7.33;6.27;;;;;;;14.78;93.35;96452.44;5053125;28;20172;-57
2021/07/02 02:44:49;;;;;;;7.03;5.97;;;;;;;14.78;93.46;96449.81;5053226;28;20422;-58
2021/07/02 02:47:15;;;;;;;8.03;6.47;;;;;;;14.69;94.09;96452.09;5053353;28;20258;-58
2021/07/02 02:49:40;;;;;;;8.40;6.67;;;;;;;14.66;94.23;96444.66;5050992;28;20534;-57
2021/07/02 02:52:06;;;;;;;8.43;6.37;;;;;;;14.73;93.96;96453.19;5033020;28;20327;-57
2021/07/02 02:54:31;;;;;;;9.13;6.70;;;;;;;14.67;93.86;96448.91;5048520;28;20333;-57
2021/07/02 02:57:06;;;;;;;7.10;6.40;;;;;;;14.67;93.66;96443.63;5053368;28;20190;-57
2021/07/02 02:59:34;;;;;;;11.20;7.60;;;;;;;14.79;93.01;96446.91;5053418;28;20630;-59
2021/07/02 03:01:59;;;;;;;7.63;6.93;;;;;;;15.03;92.24;96440.25;5052529;28;20413;-58
2021/07/02 03:04:25;;;;;;;7.93;6.40;;;;;;;14.97;91.69;96443.91;5052674;28;20425;-58
2021/07/02 03:06:51;;;;;;;7.77;6.93;;;;;;;15.17;90.91;96448.56;5053279;28;20167;-59
2021/07/02 03:09:17;;;;;;;10.33;7.13;;;;;;;15.16;90.99;96452.28;5052997;28;20171;-58
2021/07/02 03:11:45;;;;;;;8.97;7.17;;;;;;;15.33;90.18;96451.09;5051410;28;20422;-59
2021/07/02 03:14:13;;;;;;;9.00;7.27;;;;;;;15.30;89.54;96448.16;5053092;28;20444;-58
2021/07/02 03:16:38;;;;;;;8.30;7.20;;;;;;;15.45;89.26;96449.09;5053344;28;20911;-58
2021/07/02 03:19:04;;;;;;;8.17;6.47;;;;;;;15.38;89.13;96455.66;5042234;28;20427;-59
2021/07/02 03:21:30;;;;;;;8.77;6.23;;;;;;;15.44;88.87;96455.44;5033063;28;20204;-58
2021/07/02 03:23:55;;;;;;;9.17;7.20;;;;;;;15.42;88.42;96456.75;5032896;28;20190;-57
2021/07/02 03:26:20;;;;;;;7.53;6.80;;;;;;;15.06;90.19;96444.25;5032970;28;20176;-59
2021/07/02 03:28:46;;;;;;;7.87;7.07;;;;;;;15.31;89.27;96455.03;5031794;28;20259;-58
2021/07/02 03:31:11;;;;;;;10.80;7.73;;;;;;;15.27;88.87;96454.75;5033114;28;20198;-58
2021/07/02 03:33:36;;;;;;;8.00;7.20;;;;;;;15.06;90.03;96452.19;5041241;28;20206;-59
2021/07/02 03:36:02;;;;;;;8.70;6.50;;;;;;;14.89;90.82;96454.16;5053334;28;20221;-59
2021/07/02 03:38:28;;;;;;;10.70;7.50;;;;;;;14.52;92.77;96461.16;5051848;28;20179;-59
2021/07/02 03:40:53;;;;;;;8.50;7.00;;;;;;;14.64;92.70;96459.97;5053130;28;20233;-59
2021/07/02 03:43:18;;;;;;;8.40;6.80;;;;;;;14.51;93.24;96463.00;5052430;28;20549;-58
2021/07/02 03:45:44;;;;;;;8.10;6.30;;;;;;;14.44;93.44;96467.66;5053043;28;20220;-57
2021/07/02 03:48:10;;;;;;;7.60;6.47;;;;;;;14.52;93.29;96471.72;5045760;28;20187;-57
2021/07/02 03:50:36;;;;;;;10.50;8.33;;;;;;;14.64;92.60;96469.75;5045569;28;20180;-59
2021/07/02 03:53:01;;;;;;;8.03;6.63;;;;;;;14.70;92.23;96469.56;5049375;28;20447;-59
2021/07/02 03:55:26;;;;;;;7.37;6.60;;;;;;;14.76;91.75;96468.56;5032659;28;20215;-57
2021/07/02 03:57:52;;;;;;;8.87;7.10;;;;;;;14.86;91.53;96468.66;5032729;28;20234;-59
2021/07/02 04:00:17;;;;;;;9.73;7.10;;;;;;;14.83;91.31;96466.53;5032807;28;20226;-59
2021/07/02 04:02:43;;;;;;;8.63;7.30;;;;;;;14.90;91.29;96463.66;5032326;28;20165;-57
2021/07/02 04:05:09;;;;;;;8.33;7.00;;;;;;;14.99;91.23;96468.28;5041760;28;20204;-59
2021/07/02 04:07:34;;;;;;;7.70;6.90;;;;;;;14.86;91.73;96466.03;5052802;28;20175;-57
2021/07/02 04:10:00;;;;;;;8.20;6.80;;;;;;;15.04;90.94;96467.50;5052628;28;20471;-59
2021/07/02 04:12:25;;;;;;;7.70;6.90;;;;;;;15.12;90.42;96464.41;5052113;28;20191;-58
2021/07/02 04:14:51;;;;;;;9.40;7.47;;;;;;;15.21;90.46;96469.00;5035316;28;20736;-59
2021/07/02 04:17:16;;;;;;;7.53;6.73;;;;;;;15.43;89.88;96463.66;5036290;28;20505;-60
2021/07/02 04:19:41;;;;;;;8.17;7.30;;;;;;;15.34;90.22;96467.78;5036666;28;20562;-58
2021/07/02 04:22:07;;;;;;;8.03;6.77;;;;;;;15.25;90.10;96470.06;5035818;28;20583;-59
2021/07/02 04:24:33;;;;;;;7.43;6.70;;;;;;;15.25;90.36;96475.38;5036072;28;20278;-59
2021/07/02 04:26:59;;;;;;;8.57;6.60;;;;;;;15.28;90.29;96485.47;5036008;28;20446;-59
2021/07/02 04:29:26;;;;;;;10.43;7.60;;;;;;;15.19;90.46;96480.88;5045931;28;20505;-59
2021/07/02 04:31:51;;;;;;;8.30;6.80;;;;;;;15.38;90.23;96468.88;5055864;28;20176;-59
2021/07/02 04:34:18;;;;;;;9.90;7.10;;;;;;;15.24;90.50;96475.63;5055683;28;20487;-59
2021/07/02 04:36:43;;;;;;;8.13;7.27;;;;;;;15.29;90.04;96479.13;5055795;28;20230;-57
2021/07/02 04:39:09;;;;;;;10.00;6.90;;;;;;;15.36;90.37;96481.56;5055752;28;20410;-57
2021/07/02 04:41:34;;;;;;;15.37;7.17;;;;;;;15.42;89.95;96483.22;5055419;28;20171;-58
2021/07/02 04:43:59;;;;;;;7.33;6.63;;;;;;;15.38;90.08;96480.25;5048438;28;20282;-58
2021/07/02 04:46:25;;;;;;;7.87;7.03;;;;;;;15.49;89.81;96477.75;5035834;28;20183;-60
2021/07/02 04:48:51;;;;;;;11.27;7.17;;;;;;;15.55;89.80;96482.81;5035621;28;20178;-59
2021/07/02 04:51:16;;;;;;;8.47;7.23;;;;;;;15.73;88.83;96482.41;5035523;28;20415;-57
2021/07/02 04:53:43;;;;;;;8.00;7.20;;;;;;;15.68;89.06;96484.22;5043585;28;20268;-59
2021/07/02 04:56:12;;;;;;;8.40;7.50;;;;;;;15.73;89.15;96484.25;5055312;28;20175;-58
2021/07/02 04:58:42;;;;;;;8.27;6.70;;;;;;;15.73;88.36;96478.94;5053308;28;20426;-59
2021/07/02 05:01:08;;;;;;;7.93;6.90;;;;;;;15.60;89.45;96484.72;5039681;28;20787;-59
2021/07/02 05:03:33;;;;;;;8.70;6.60;;;;;;;15.50;89.71;96488.06;5053614;28;20430;-59
2021/07/02 05:06:01;;;;;;;10.00;6.90;;;;;;;15.44;89.82;96486.44;5055465;28;20237;-59
2021/07/02 05:08:26;;;;;;;9.00;7.13;;;;;;;15.28;90.34;96484.69;5055361;28;20171;-58
2021/07/02 05:10:52;;;;;;;7.70;6.87;;;;;;;15.40;90.16;96493.25;5055161;28;20422;-58
2021/07/02 05:13:17;;;;;;;7.53;6.83;;;;;;;15.33;90.49;96490.00;5054648;28;20569;-59
2021/07/02 05:15:43;;;;;;;9.87;8.30;;;;;;;15.24;90.79;96486.22;5051660;28;20172;-57
2021/07/02 05:18:08;;;;;;;8.33;7.10;;;;;;;15.27;91.16;96489.16;5035269;28;20199;-58
2021/07/02 05:20:33;;;;;;;24.40;7.90;;;;;;;15.29;91.11;96488.94;5035063;28;20180;-59
2021/07/02 05:22:59;;;;;;;9.00;7.20;;;;;;;15.22;91.22;96490.97;5034566;28;20171;-59
2021/07/02 05:25:25;;;;;;;7.63;6.80;;;;;;;15.25;91.10;96493.13;5034692;28;20187;-58
2021/07/02 05:27:50;;;;;;;9.10;7.20;;;;;;;15.57;90.26;96496.59;5038094;28;20167;-59
2021/07/02 05:30:16;;;;;;;9.20;7.47;;;;;;;15.34;90.61;96499.56;5054877;28;20911;-59
2021/07/02 05:32:42;;;;;;;12.67;7.73;;;;;;;15.42;90.49;96497.28;5054322;28;20554;-57
2021/07/02 05:35:09;;;;;;;9.40;7.60;;;;;;;15.40;90.74;96496.72;5054567;28;20429;-57
2021/07/02 05:37:39;;;;;;;8.70;7.17;;;;;;;15.30;90.95;96503.75;5051302;28;20418;-59
2021/07/02 05:40:05;;;;;;;8.77;7.20;;;;;;;15.44;91.05;96499.66;5054516;28;20892;-59
2021/07/02 05:42:31;;;;;;;9.70;7.30;;;;;;;15.41;91.57;96503.63;5054347;28;20436;-59
2021/07/02 05:44:56;;;;;;;9.03;7.37;;;;;;;15.33;92.08;96511.19;5054565;28;20931;-57
2021/07/02 05:47:23;;;;;;;8.20;7.40;;;;;;;15.67;90.93;96501.97;5054509;28;20668;-59
2021/07/02 05:49:48;;;;;;;9.20;7.77;;;;;;;15.71;90.45;96503.06;5054587;28;20202;-57
2021/07/02 05:52:14;;;;;;;7.30;6.60;;;;;;;15.74;89.27;96507.06;5040759;28;20486;-59
2021/07/02 05:54:39;;;;;;;10.17;6.60;;;;;;;15.77;89.25;96509.19;5050595;28;20289;-59
2021/07/02 05:57:04;;;;;;;8.30;6.63;;;;;;;16.09;88.49;96502.78;5054353;28;20625;-59
2021/07/02 05:59:30;;;;;;;7.30;6.60;;;;;;;16.17;87.11;96502.31;5054376;28;20211;-57
2021/07/02 06:01:55;;;;;;;8.87;7.17;;;;;;;16.20;85.93;96501.78;5053774;28;20526;-58
2021/07/02 06:04:20;;;;;;;7.43;6.73;;;;;;;16.35;86.76;96504.53;5054058;28;20191;-59
2021/07/02 06:06:48;;;;;;;7.53;6.70;;;;;;;16.23;86.51;96506.56;5050500;28;20188;-59
2021/07/02 06:09:14;;;;;;;7.97;7.17;;;;;;;16.27;86.22;96496.25;5040007;28;20233;-59
2021/07/02 06:11:39;;;;;;;7.57;6.77;;;;;;;16.38;85.39;96506.66;5053513;28;20414;-59
2021/07/02 06:14:05;;;;;;;7.33;6.63;;;;;;;16.35;85.57;96509.03;5053018;28;20441;-57
2021/07/02 06:16:30;;;;;;;7.80;7.10;;;;;;;16.51;86.06;96515.22;5052389;28;20569;-59
2021/07/02 06:18:56;;;;;;;8.00;6.73;;;;;;;16.71;84.75;96518.75;5053856;28;20198;-59
2021/07/02 06:21:21;;;;;;;7.60;6.80;;;;;;;16.44;85.50;96518.09;5048112;28;20171;-58
2021/07/02 06:23:46;;;;;;;7.30;6.60;;;;;;;16.51;85.65;96526.63;5033277;28;20191;-59
2021/07/02 06:26:12;;;;;;;7.47;6.60;;;;;;;16.54;85.35;96522.69;5046962;28;20187;-59
2021/07/02 06:28:37;;;;;;;6.97;6.27;;;;;;;16.91;84.48;96520.69;5053629;28;20163;-58
2021/07/02 06:31:04;;;;;;;6.90;6.00;;;;;;;16.83;84.46;96527.28;5053707;28;20171;-58
2021/07/02 06:33:29;;;;;;;7.60;6.90;;;;;;;16.88;83.49;96526.53;5053167;28;20222;-59
2021/07/02 06:35:55;;;;;;;7.67;6.87;;;;;;;17.11;83.07;96529.50;5053485;28;20406;-57
2021/07/02 06:38:20;;;;;;;7.47;6.70;;;;;;;17.09;82.66;96536.13;5053144;28;20175;-58
2021/07/02 06:40:47;;;;;;;8.23;7.23;;;;;;;17.09;82.26;96531.63;5051433;28;20183;-57
2021/07/02 06:43:12;;;;;;;6.90;6.30;;;;;;;17.32;82.04;96533.78;5053125;28;20209;-57
2021/07/02 06:45:38;;;;;;;6.73;6.07;;;;;;;17.38;81.80;96532.75;5053468;28;20807;-59
2021/07/02 06:48:05;;;;;;;6.93;6.23;;;;;;;17.33;82.12;96538.06;5050930;28;20303;-59
2021/07/02 06:50:33;;;;;;;6.87;6.33;;;;;;;17.33;81.85;96537.25;5032197;28;20210;-57
2021/07/02 06:53:00;;;;;;;7.10;6.40;;;;;;;17.25;81.20;96533.25;5035529;28;20459;-59
2021/07/02 06:55:26;;;;;;;6.83;6.17;;;;;;;17.31;81.48;96542.03;5051026;28;20487;-58
2021/07/02 06:57:52;;;;;;;6.83;6.23;;;;;;;17.60;81.84;96540.50;5046485;28;20414;-59
2021/07/02 07:00:19;;;;;;;7.77;6.43;;;;;;;17.46;80.94;96540.19;5033464;28;20449;-56
2021/07/02 07:02:45;;;;;;;7.47;6.30;;;;;;;17.57;80.90;96540.22;5043424;28;20410;-59
2021/07/02 07:05:11;;;;;;;7.60;6.90;;;;;;;17.41;81.38;96536.75;5033387;28;20430;-59
2021/07/02 07:07:36;;;;;;;7.63;6.93;;;;;;;17.36;80.87;96545.50;5033266;28;20411;-59
2021/07/02 07:10:03;;;;;;;7.90;7.00;;;;;;;17.48;79.63;96551.38;5033263;28;20429;-57
2021/07/02 07:12:29;;;;;;;8.00;6.60;;;;;;;17.60;80.95;96543.16;5032764;28;20192;-61
2021/07/02 07:14:54;;;;;;;8.07;6.57;;;;;;;17.69;79.49;96544.22;5045525;28;20453;-58
2021/07/02 07:17:20;;;;;;;8.33;6.50;;;;;;;17.76;77.85;96543.94;5052873;28;20221;-60
2021/07/02 07:19:47;;;;;;;10.10;6.37;;;;;;;17.87;78.65;96543.69;5041133;28;20577;-58
2021/07/02 07:22:12;;;;;;;6.47;5.87;;;;;;;18.03;77.05;96550.59;5047756;28;20167;-58
2021/07/02 07:24:37;;;;;;;7.53;6.60;;;;;;;17.95;76.12;96551.16;5051027;28;20476;-59
2021/07/02 07:27:03;;;;;;;6.10;5.50;;;;;;;17.77;77.85;96549.03;5049214;28;20188;-63
2021/07/02 07:29:28;;;;;;;7.30;5.77;;;;;;;17.95;76.17;96555.66;5041151;28;20168;-63
2021/07/02 07:31:55;;;;;;;8.70;6.50;;;;;;;17.93;74.92;96550.59;5042263;28;20213;-59
2021/07/02 07:37:08;;;;;;;6.50;5.90;;;;;;;18.07;71.52;96549.00;5041099;28;20453;-63
2021/07/02 07:39:34;;;;;;;6.50;5.90;;;;;;;17.99;71.46;96552.19;5044179;28;20888;-59
2021/07/02 07:41:59;;;;;;;7.77;5.90;;;;;;;18.09;72.43;96538.09;5043692;28;20474;-63
2021/07/02 07:44:24;;;;;;;6.20;5.60;;;;;;;17.99;71.51;96538.88;5041299;28;20200;-59
2021/07/02 07:46:50;;;;;;;6.30;5.70;;;;;;;17.97;72.33;96551.66;5041554;28;20210;-63
2021/07/02 07:49:16;;;;;;;6.00;5.40;;;;;;;18.03;72.96;96553.25;5043204;28;20638;-62
2021/07/02 07:51:50;;;;;;;6.27;5.67;;;;;;;18.14;71.06;96552.16;5049429;28;20425;-59
2021/07/02 07:54:15;;;;;;;5.67;5.17;;;;;;;18.44;71.73;96549.47;5038840;28;20212;-61
2021/07/02 07:56:50;;;;;;;5.50;5.00;;;;;;;18.79;71.78;96553.88;5045588;28;20427;-59
2021/07/02 07:59:17;;;;;;;5.50;5.07;;;;;;;18.64;70.18;96547.84;5044872;28;20172;-62
2021/07/02 08:01:42;;;;;;;6.50;5.80;;;;;;;18.94;70.29;96550.38;5047245;28;20421;-61
2021/07/02 08:04:07;;;;;;;6.27;5.43;;;;;;;18.85;69.28;96552.81;5047682;28;20770;-57
2021/07/02 08:06:33;;;;;;;6.03;5.43;;;;;;;18.95;69.51;96563.41;5044897;28;20603;-62
2021/07/02 08:08:58;;;;;;;6.37;5.77;;;;;;;18.90;68.03;96560.78;5048963;28;20190;-62
2021/07/02 08:11:23;;;;;;;6.50;5.80;;;;;;;19.13;68.31;96573.44;5043958;28;20172;-60
2021/07/02 08:13:49;;;;;;;5.73;5.23;;;;;;;19.13;68.45;96567.34;5044013;28;20195;-61
2021/07/02 08:16:14;;;;;;;7.00;5.80;;;;;;;19.18;70.86;96560.13;5043887;28;20183;-57
2021/07/02 08:18:39;;;;;;;5.70;5.20;;;;;;;19.52;68.92;96559.41;5041871;28;20179;-56
2021/07/02 08:21:05;;;;;;;6.90;5.67;;;;;;;19.51;69.51;96553.28;5040630;28;20214;-60
2021/07/02 08:23:30;;;;;;;6.53;5.97;;;;;;;19.62;69.93;96557.44;5040118;28;20682;-58
2021/07/02 08:25:56;;;;;;;5.70;5.10;;;;;;;19.39;66.85;96555.47;5035406;28;20179;-57
2021/07/02 08:31:06;;;;;;;5.73;5.27;;;;;;;19.06;64.55;96567.63;5032697;28;20202;-61
2021/07/02 08:33:31;;;;;;;6.10;5.27;;;;;;;19.02;65.17;96568.47;5032238;28;20969;-61
2021/07/02 08:35:56;;;;;;;6.67;5.50;;;;;;;19.04;67.00;96566.31;5032563;28;20172;-58
2021/07/02 08:38:22;;;;;;;5.10;4.60;;;;;;;18.97;65.58;96571.16;5031952;28;20280;-56
2021/07/02 08:40:47;;;;;;;6.47;5.97;;;;;;;19.21;68.97;96566.75;5032467;28;20226;-59
2021/07/02 08:43:12;;;;;;;6.30;5.80;;;;;;;19.34;66.70;96572.31;5037065;28;20179;-62
2021/07/02 08:45:38;;;;;;;6.77;4.87;;;;;;;19.64;68.06;96567.88;5037933;28;20722;-59
2021/07/02 08:48:06;;;;;;;5.70;5.00;;;;;;;19.67;64.27;96577.97;5039929;28;20190;-60
2021/07/02 08:50:33;;;;;;;5.77;5.27;;;;;;;19.17;65.14;96576.34;5039679;28;20769;-58
2021/07/02 08:52:59;;;;;;;5.70;5.23;;;;;;;19.08;63.10;96581.47;5033416;28;20576;-57
2021/07/02 08:55:25;;;;;;;6.63;5.80;;;;;;;19.25;63.47;96578.47;5039506;28;20441;-58
2021/07/02 08:57:51;;;;;;;5.93;5.33;;;;;;;19.28;64.43;96575.22;5040422;28;20499;-56
2021/07/02 09:00:18;;;;;;;6.27;5.67;;;;;;;19.42;64.13;96566.38;5039377;28;20454;-58
2021/07/02 09:02:43;;;;;;;5.40;5.00;;;;;;;19.29;63.08;96576.84;5039396;28;20180;-57
2021/07/02 09:05:36;;;;;;;5.50;5.00;;;;;;;19.70;61.60;96578.22;5039892;28;20447;-58
2021/07/02 09:08:11;;;;;;;5.70;5.20;;;;;;;19.47;61.44;96570.91;5048530;28;20566;-59
2021/07/02 09:10:37;;;;;;;5.60;5.10;;;;;;;19.78;61.46;96569.63;5037341;28;20437;-60
2021/07/02 09:13:03;;;;;;;6.93;5.20;;;;;;;20.03;60.63;96566.75;5037802;28;20465;-60
2021/07/02 09:15:29;;;;;;;5.87;5.27;;;;;;;20.15;63.57;96577.03;5039414;28;20241;-59
2021/07/02 09:18:00;;;;;;;6.83;5.00;;;;;;;20.16;61.53;96574.13;5039124;28;20442;-58
2021/07/02 09:20:28;;;;;;;4.80;4.40;;;;;;;20.12;62.05;96575.75;5039161;28;20274;-57
2021/07/02 09:23:03;;;;;;;6.47;5.10;;;;;;;20.45;65.44;96584.81;5039751;28;20426;-59
2021/07/02 09:25:41;;;;;;;4.97;4.57;;;;;;;20.33;56.00;96571.84;5035397;28;20426;-58
2021/07/02 09:28:11;;;;;;;5.23;4.67;;;;;;;20.53;58.99;96576.16;5049157;28;20444;-58
2021/07/02 09:30:38;;;;;;;6.10;4.53;;;;;;;20.83;59.64;96578.53;5055038;28;20449;-59
2021/07/02 09:33:07;;;;;;;4.87;4.37;;;;;;;21.16;59.50;96574.16;5054313;28;20460;-59
2021/07/02 09:35:48;;;;;;;5.20;4.70;;;;;;;21.33;58.32;96569.91;5055457;28;20425;-58
2021/07/02 09:38:16;;;;;;;5.57;5.10;;;;;;;21.30;58.54;96573.16;5054852;28;20869;-59
2021/07/02 09:40:43;;;;;;;4.97;4.57;;;;;;;21.51;55.94;96565.63;5053562;28;20426;-58
2021/07/02 09:43:10;;;;;;;6.40;5.13;;;;;;;21.67;57.46;96575.00;5036244;28;20784;-59
2021/07/02 09:45:53;;;;;;;5.40;5.00;;;;;;;21.31;57.16;96581.94;5034769;28;20407;-58
2021/07/02 09:48:30;;;;;;;5.53;5.10;;;;;;;21.51;56.13;96570.97;5035063;28;20498;-59
2021/07/02 09:50:55;;;;;;;5.23;4.83;;;;;;;21.57;52.92;96575.19;5033629;28;20893;-59
2021/07/02 09:53:27;;;;;;;5.03;4.53;;;;;;;21.85;53.77;96578.81;5039276;28;20453;-59
2021/07/02 09:55:55;;;;;;;5.67;5.00;;;;;;;21.59;55.27;96581.03;5035816;28;20267;-59
2021/07/02 09:58:23;;;;;;;5.53;5.03;;;;;;;21.12;55.40;96581.16;5051991;28;20484;-59
2021/07/02 10:00:51;;;;;;;5.40;5.00;;;;;;;20.81;54.64;96587.91;5054297;28;20402;-60
2021/07/02 10:03:37;;;;;;;5.00;4.60;;;;;;;20.75;55.61;96595.16;5054026;28;20792;-58
2021/07/02 10:06:06;;;;;;;4.40;4.10;;;;;;;20.87;56.38;96592.88;5053954;28;20425;-58
2021/07/02 10:08:34;;;;;;;5.13;4.73;;;;;;;21.07;55.14;96581.22;5054201;28;20417;-59
2021/07/02 10:11:01;;;;;;;5.20;4.70;;;;;;;21.09;51.99;96579.03;5053201;28;20414;-58
2021/07/02 10:13:28;;;;;;;4.47;4.07;;;;;;;21.37;53.37;96578.13;5033450;28;20512;-59
2021/07/02 10:15:56;;;;;;;6.30;4.87;;;;;;;21.57;52.21;96583.19;5045857;28;20422;-59
2021/07/02 10:18:24;;;;;;;5.40;4.90;;;;;;;21.57;53.92;96580.53;5054186;28;20441;-60
2021/07/02 10:20:50;;;;;;;4.33;4.03;;;;;;;21.34;50.41;96586.75;5054241;28;20420;-60
2021/07/02 10:23:32;;;;;;;4.97;4.57;;;;;;;21.26;55.44;96582.03;5053431;28;20445;-59
2021/07/02 10:25:58;;;;;;;5.50;5.10;;;;;;;21.57;57.60;96571.69;5054072;28;20409;-58
2021/07/02 10:28:25;;;;;;;5.40;4.90;;;;;;;21.69;57.72;96578.19;5053901;28;20757;-58
2021/07/02 10:30:51;;;;;;;5.03;4.53;;;;;;;21.80;55.18;96589.56;5040449;28;20642;-58
2021/07/02 10:33:19;;;;;;;6.40;5.30;;;;;;;21.68;54.17;96579.28;5034375;28;20975;-58
2021/07/02 10:35:51;;;;;;;5.60;5.10;;;;;;;21.90;55.58;96578.72;5033859;28;20961;-59
2021/07/02 10:38:17;;;;;;;5.07;4.67;;;;;;;21.98;54.82;96572.69;5033742;28;20908;-58
2021/07/02 10:40:44;;;;;;;5.50;4.70;;;;;;;22.21;52.05;96585.19;5033961;28;20407;-59
2021/07/02 10:43:23;;;;;;;5.70;5.20;;;;;;;22.48;55.80;96577.97;5033385;28;20211;-59
2021/07/02 10:46:07;;;;;;;5.23;4.83;;;;;;;22.44;53.17;96579.69;5043787;28;20515;-58
2021/07/02 10:48:54;;;;;;;5.70;5.20;;;;;;;22.40;51.50;96581.34;5053731;28;20499;-59
2021/07/02 10:51:32;;;;;;;4.50;4.10;;;;;;;22.78;52.26;96582.00;5053507;28;20970;-59
2021/07/02 10:54:09;;;;;;;4.50;4.20;;;;;;;22.77;50.12;96577.75;5052961;28;21029;-59
2021/07/02 10:56:34;;;;;;;5.00;4.23;;;;;;;22.97;50.31;96585.38;5053425;28;20441;-59
2021/07/02 10:59:02;;;;;;;5.30;4.80;;;;;;;22.87;47.05;96579.44;5053741;28;20505;-58
2021/07/02 11:01:31;;;;;;;4.90;4.40;;;;;;;22.49;48.35;96592.16;5043860;28;20172;-59
2021/07/02 11:04:34;;;;;;;4.40;3.90;;;;;;;22.64;51.88;96583.09;5039671;28;20530;-60
2021/07/02 11:07:00;;;;;;;4.17;3.83;;;;;;;22.95;54.03;96574.19;5047138;28;20508;-59
2021/07/02 11:09:44;;;;;;;5.00;4.60;;;;;;;22.71;47.64;96584.28;5053243;28;20413;-60
2021/07/02 11:12:12;;;;;;;5.33;4.83;;;;;;;22.93;51.55;96580.94;5041448;28;20812;-57
2021/07/02 11:14:55;;;;;;;5.87;5.27;;;;;;;23.28;52.53;96577.53;5028668;28;20450;-58
2021/07/02 11:17:39;;;;;;;5.20;4.33;;;;;;;22.92;48.17;96585.47;5048905;28;20426;-57
2021/07/02 11:20:05;;;;;;;5.00;4.50;;;;;;;22.82;48.67;96574.97;5049810;28;20401;-58
2021/07/02 11:22:34;;;;;;;5.30;4.90;;;;;;;22.82;49.13;96582.22;5049303;28;20421;-57
2021/07/02 11:27:50;;;;;;;5.50;5.03;;;;;;;23.41;50.63;96580.19;5033911;28;20419;-57
2021/07/02 11:30:27;;;;;;;5.83;5.33;;;;;;;23.18;49.18;96575.03;5033856;28;20418;-58
2021/07/02 11:32:55;;;;;;;5.57;5.07;;;;;;;22.98;48.52;96584.31;5050555;28;20461;-58
2021/07/02 11:35:28;;;;;;;5.40;5.00;;;;;;;23.59;52.47;96572.31;5053073;28;20457;-57
2021/07/02 11:38:11;;;;;;;5.93;5.43;;;;;;;23.73;49.99;96587.28;5053598;28;20410;-58
2021/07/02 11:40:50;;;;;;;6.03;5.50;;;;;;;23.96;49.92;96575.47;5053736;28;21226;-58
2021/07/02 11:43:20;;;;;;;5.97;4.63;;;;;;;23.86;47.97;96574.91;5034695;28;20418;-59